Portada
METAR-TAF:

METAR-TAF

Aeroports :

Irkutsk, Rússia

latitud: 52-16N, longitud: 104-19E, altitud: 513 m

Observació

L'informe es va fer fa 39 minuts, a les 06:30 UTC
Vent 14 kt del Sud/Sud-Est
Temperatura 17°C
Humitat 22%
Pressió 1023 hPa
Visibilitat 10 km o més
sense núvols per sota de 1500 mi sense presència de cumulonimbus.

METAR: UIII 090630Z 15007MPS CAVOK 17/M05 Q1023 R12/60D NOSIG RMK QFE725/0966

Hora: 15:09 (07:09 UTC)

Pronòstic

L'informe es va fer fa 2 hores i 9 minuts, a les 05:00 UTC
Pronòstic vàlid del 09 a les 06 UTC al 10 a les 06 UTC
Vent 10 kt del Sud/Sud-Est amb ràfegues de 19 kt
Visibilitat 10 km o més
sense núvols per sota de 1500 mi sense presència de cumulonimbus.

TAF: UIII 090500Z 0906/1006 16005G10MPS CAVOK

Observacions i pronòstics meteorològics de més de 4000 aeroports (METAR i TAF).

Les estacions disponibles són els punts grocs i vermells al mapa.

Posi el ratolí al punt desitjat per veure el nom de l'estació.

Feu clic per veure les observacions i els pronòstics meteorològics.

Per canviar el mapa: feu clic els botons verds amb una creu de color negre per apropar; al botó verd amb un guió per allunyar la imatge; o en les fletxes verdes per a mapes adjacents.


METAR-TAF: